sensor_id;sensor_type;location;lat;lon;timestamp;pressure;altitude;pressure_sealevel;temperature;humidity
63399;BME280;49533;-34.520;150.798;2023-04-04T00:02:19;101017.88;;;23.66;55.57
63399;BME280;49533;-34.520;150.798;2023-04-04T00:04:46;101011.13;;;23.67;55.17
63399;BME280;49533;-34.520;150.798;2023-04-04T00:07:13;101047.44;;;23.96;55.42
63399;BME280;49533;-34.520;150.798;2023-04-04T00:09:40;101014.09;;;23.89;55.25
63399;BME280;49533;-34.520;150.798;2023-04-04T00:12:07;101041.19;;;24.06;55.50
63399;BME280;49533;-34.520;150.798;2023-04-04T00:14:34;101012.13;;;23.93;54.79
63399;BME280;49533;-34.520;150.798;2023-04-04T00:17:02;101050.00;;;24.22;54.55
63399;BME280;49533;-34.520;150.798;2023-04-04T00:19:29;101024.53;;;24.09;54.66
63399;BME280;49533;-34.520;150.798;2023-04-04T00:21:56;101039.28;;;24.24;54.85
63399;BME280;49533;-34.520;150.798;2023-04-04T00:24:23;101013.06;;;24.11;54.79
63399;BME280;49533;-34.520;150.798;2023-04-04T00:26:50;101004.72;;;24.11;54.85
63399;BME280;49533;-34.520;150.798;2023-04-04T00:29:17;101041.81;;;24.47;54.60
63399;BME280;49533;-34.520;150.798;2023-04-04T00:31:44;101026.72;;;24.45;54.32
63399;BME280;49533;-34.520;150.798;2023-04-04T00:34:11;101028.75;;;24.55;54.38
63399;BME280;49533;-34.520;150.798;2023-04-04T00:36:39;100966.66;;;24.15;54.50
63399;BME280;49533;-34.520;150.798;2023-04-04T00:39:06;101013.25;;;24.47;54.35
63399;BME280;49533;-34.520;150.798;2023-04-04T00:41:33;101025.22;;;24.65;53.34
63399;BME280;49533;-34.520;150.798;2023-04-04T00:44:00;101025.66;;;24.71;53.60
63399;BME280;49533;-34.520;150.798;2023-04-04T00:46:28;101014.53;;;24.74;53.59
63399;BME280;49533;-34.520;150.798;2023-04-04T00:48:55;100991.06;;;24.58;53.22
63399;BME280;49533;-34.520;150.798;2023-04-04T00:51:23;101010.19;;;24.81;53.58
63399;BME280;49533;-34.520;150.798;2023-04-04T00:53:50;100991.13;;;24.76;53.18
63399;BME280;49533;-34.520;150.798;2023-04-04T00:56:18;101001.06;;;24.87;53.49
63399;BME280;49533;-34.520;150.798;2023-04-04T00:58:46;100959.72;;;24.64;53.43
63399;BME280;49533;-34.520;150.798;2023-04-04T01:01:13;100964.91;;;24.77;52.96
63399;BME280;49533;-34.520;150.798;2023-04-04T01:03:40;100945.44;;;24.69;53.04
63399;BME280;49533;-34.520;150.798;2023-04-04T01:06:08;100881.84;;;24.32;53.57
63399;BME280;49533;-34.520;150.798;2023-04-04T01:08:36;100877.91;;;24.37;52.92
63399;BME280;49533;-34.520;150.798;2023-04-04T01:11:03;100921.66;;;24.76;52.98
63399;BME280;49533;-34.520;150.798;2023-04-04T01:13:32;100914.50;;;24.74;53.09
63399;BME280;49533;-34.520;150.798;2023-04-04T01:15:59;100888.31;;;24.65;52.83
63399;BME280;49533;-34.520;150.798;2023-04-04T01:18:27;100917.69;;;24.84;52.66
63399;BME280;49533;-34.520;150.798;2023-04-04T01:21:01;100911.75;;;24.85;53.03
63399;BME280;49533;-34.520;150.798;2023-04-04T01:23:46;100909.75;;;24.86;53.05
63399;BME280;49533;-34.520;150.798;2023-04-04T01:26:15;100952.69;;;25.17;52.16
63399;BME280;49533;-34.520;150.798;2023-04-04T01:28:42;100946.72;;;25.15;51.99
63399;BME280;49533;-34.520;150.798;2023-04-04T01:31:12;100928.81;;;25.12;52.36
63399;BME280;49533;-34.520;150.798;2023-04-04T01:33:45;100943.16;;;25.22;52.43
63399;BME280;49533;-34.520;150.798;2023-04-04T01:36:21;100936.41;;;25.23;52.57
63399;BME280;49533;-34.520;150.798;2023-04-04T01:38:57;100918.09;;;25.14;52.00
63399;BME280;49533;-34.520;150.798;2023-04-04T01:41:25;100869.25;;;24.85;51.87
63399;BME280;49533;-34.520;150.798;2023-04-04T01:43:56;100907.38;;;25.09;52.17
63399;BME280;49533;-34.520;150.798;2023-04-04T01:46:23;100910.16;;;25.09;52.14
63399;BME280;49533;-34.520;150.798;2023-04-04T01:48:50;100901.81;;;25.09;51.85
63399;BME280;49533;-34.520;150.798;2023-04-04T01:51:18;100889.13;;;25.05;51.98
63399;BME280;49533;-34.520;150.798;2023-04-04T01:53:45;100878.78;;;25.05;51.87
63399;BME280;49533;-34.520;150.798;2023-04-04T01:56:12;100905.81;;;25.30;51.93
63399;BME280;49533;-34.520;150.798;2023-04-04T01:58:39;100905.00;;;25.33;51.56
63399;BME280;49533;-34.520;150.798;2023-04-04T02:01:06;100840.66;;;25.02;52.24
63399;BME280;49533;-34.520;150.798;2023-04-04T02:03:34;100852.97;;;25.05;52.24
63399;BME280;49533;-34.520;150.798;2023-04-04T02:06:02;100854.16;;;25.07;52.07
63399;BME280;49533;-34.520;150.798;2023-04-04T02:08:29;100813.66;;;24.85;51.74
63399;BME280;49533;-34.520;150.798;2023-04-04T02:10:57;100874.84;;;25.21;51.93
63399;BME280;49533;-34.520;150.798;2023-04-04T02:13:24;100844.22;;;25.03;51.29
63399;BME280;49533;-34.520;150.798;2023-04-04T02:15:52;100880.78;;;25.37;51.60
63399;BME280;49533;-34.520;150.798;2023-04-04T02:18:19;100877.22;;;25.36;51.77
63399;BME280;49533;-34.520;150.798;2023-04-04T02:20:53;100856.56;;;25.27;51.62
63399;BME280;49533;-34.520;150.798;2023-04-04T02:23:20;100858.13;;;25.28;51.47
63399;BME280;49533;-34.520;150.798;2023-04-04T02:25:50;100807.31;;;25.02;51.49
63399;BME280;49533;-34.520;150.798;2023-04-04T02:28:18;100858.94;;;25.39;51.38
63399;BME280;49533;-34.520;150.798;2023-04-04T02:30:45;100831.53;;;25.20;51.36
63399;BME280;49533;-34.520;150.798;2023-04-04T02:33:12;100848.59;;;25.40;51.55
63399;BME280;49533;-34.520;150.798;2023-04-04T02:35:40;100842.63;;;25.37;51.31
63399;BME280;49533;-34.520;150.798;2023-04-04T02:38:07;100792.19;;;25.10;51.31
63399;BME280;49533;-34.520;150.798;2023-04-04T02:40:34;100797.75;;;25.10;51.27
63399;BME280;49533;-34.520;150.798;2023-04-04T02:43:04;100831.13;;;25.35;51.52
63399;BME280;49533;-34.520;150.798;2023-04-04T02:45:31;100808.91;;;25.25;51.27
63399;BME280;49533;-34.520;150.798;2023-04-04T02:47:58;100830.31;;;25.35;51.23
63399;BME280;49533;-34.520;150.798;2023-04-04T02:50:25;100814.03;;;25.30;51.60
63399;BME280;49533;-34.520;150.798;2023-04-04T02:52:57;100818.81;;;25.36;51.28
63399;BME280;49533;-34.520;150.798;2023-04-04T02:55:25;100814.41;;;25.35;51.43
63399;BME280;49533;-34.520;150.798;2023-04-04T02:57:52;100800.94;;;25.30;51.05
63399;BME280;49533;-34.520;150.798;2023-04-04T03:00:19;100762.81;;;25.09;51.39
63399;BME280;49533;-34.520;150.798;2023-04-04T03:02:53;100774.75;;;25.03;49.37
63399;BME280;49533;-34.520;150.798;2023-04-04T03:05:20;100789.84;;;25.16;49.80
63399;BME280;49533;-34.520;150.798;2023-04-04T03:07:51;100775.97;;;24.98;49.63
63399;BME280;49533;-34.520;150.798;2023-04-04T03:10:21;100745.03;;;24.78;50.18
63399;BME280;49533;-34.520;150.798;2023-04-04T03:12:49;100777.09;;;25.08;49.91
63399;BME280;49533;-34.520;150.798;2023-04-04T03:15:16;100764.84;;;24.98;49.89
63399;BME280;49533;-34.520;150.798;2023-04-04T03:17:44;100771.56;;;25.04;49.95
63399;BME280;49533;-34.520;150.798;2023-04-04T03:20:12;100766.41;;;24.99;48.68
63399;BME280;49533;-34.520;150.798;2023-04-04T03:22:40;100766.03;;;24.97;49.57
63399;BME280;49533;-34.520;150.798;2023-04-04T03:25:08;100758.09;;;24.95;50.19
63399;BME280;49533;-34.520;150.798;2023-04-04T03:27:36;100745.41;;;24.91;50.00
63399;BME280;49533;-34.520;150.798;2023-04-04T03:30:06;100762.84;;;24.99;50.92
63399;BME280;49533;-34.520;150.798;2023-04-04T03:32:35;100758.88;;;25.00;51.32
63399;BME280;49533;-34.520;150.798;2023-04-04T03:35:03;100742.97;;;25.00;50.30
63399;BME280;49533;-34.520;150.798;2023-04-04T03:37:30;100754.50;;;25.06;50.74
63399;BME280;49533;-34.520;150.798;2023-04-04T03:39:58;100727.94;;;24.90;49.82
63399;BME280;49533;-34.520;150.798;2023-04-04T03:42:25;100710.88;;;24.74;50.25
63399;BME280;49533;-34.520;150.798;2023-04-04T03:44:53;100734.66;;;24.89;50.15
63399;BME280;49533;-34.520;150.798;2023-04-04T03:47:20;100703.38;;;24.67;50.52
63399;BME280;49533;-34.520;150.798;2023-04-04T03:49:47;100747.34;;;25.01;51.02
63399;BME280;49533;-34.520;150.798;2023-04-04T03:52:16;100739.41;;;25.03;51.55
63399;BME280;49533;-34.520;150.798;2023-04-04T03:54:44;100704.13;;;24.79;51.00
63399;BME280;49533;-34.520;150.798;2023-04-04T03:57:11;100715.22;;;24.82;51.27
63399;BME280;49533;-34.520;150.798;2023-04-04T03:59:39;100731.88;;;24.97;51.18
63399;BME280;49533;-34.520;150.798;2023-04-04T04:02:06;100706.09;;;24.82;51.48
63399;BME280;49533;-34.520;150.798;2023-04-04T04:04:33;100593.50;;;24.02;51.00
63399;BME280;49533;-34.520;150.798;2023-04-04T04:07:00;100612.91;;;24.20;50.92
63399;BME280;49533;-34.520;150.798;2023-04-04T04:09:27;100727.09;;;24.97;51.54
63399;BME280;49533;-34.520;150.798;2023-04-04T04:11:55;100728.28;;;25.00;51.81
63399;BME280;49533;-34.520;150.798;2023-04-04T04:14:22;100727.09;;;24.97;51.80
63399;BME280;49533;-34.520;150.798;2023-04-04T04:16:49;100664.09;;;24.55;51.75
63399;BME280;49533;-34.520;150.798;2023-04-04T04:19:16;100606.97;;;24.18;51.37
63399;BME280;49533;-34.520;150.798;2023-04-04T04:21:43;100706.50;;;24.80;51.59
63399;BME280;49533;-34.520;150.798;2023-04-04T04:24:11;100698.59;;;24.64;51.55
63399;BME280;49533;-34.520;150.798;2023-04-04T04:26:38;100706.50;;;24.77;51.28
63399;BME280;49533;-34.520;150.798;2023-04-04T04:29:05;100721.97;;;24.92;51.93
63399;BME280;49533;-34.520;150.798;2023-04-04T04:31:33;100721.16;;;24.95;51.84
63399;BME280;49533;-34.520;150.798;2023-04-04T04:34:00;100679.53;;;24.73;52.17
63399;BME280;49533;-34.520;150.798;2023-04-04T04:36:28;100728.72;;;24.98;51.95
63399;BME280;49533;-34.520;150.798;2023-04-04T04:38:55;100720.75;;;25.04;51.91
63399;BME280;49533;-34.520;150.798;2023-04-04T04:41:22;100676.31;;;24.82;51.69
63399;BME280;49533;-34.520;150.798;2023-04-04T04:43:50;100660.06;;;24.77;52.18
63399;BME280;49533;-34.520;150.798;2023-04-04T04:46:17;100702.06;;;25.08;52.11
63399;BME280;49533;-34.520;150.798;2023-04-04T04:48:44;100709.22;;;25.05;51.95
63399;BME280;49533;-34.520;150.798;2023-04-04T04:51:11;100710.81;;;25.17;52.02
63399;BME280;49533;-34.520;150.798;2023-04-04T04:53:40;100717.53;;;25.20;52.01
63399;BME280;49533;-34.520;150.798;2023-04-04T04:56:07;100716.72;;;25.23;51.83
63399;BME280;49533;-34.520;150.798;2023-04-04T04:58:34;100688.19;;;24.97;52.05
63399;BME280;49533;-34.520;150.798;2023-04-04T05:01:01;100703.63;;;25.12;51.45
63399;BME280;49533;-34.520;150.798;2023-04-04T05:03:29;100705.63;;;25.12;51.21
63399;BME280;49533;-34.520;150.798;2023-04-04T05:05:56;100723.47;;;25.25;51.54
63399;BME280;49533;-34.520;150.798;2023-04-04T05:08:23;100673.91;;;24.95;51.87
63399;BME280;49533;-34.520;150.798;2023-04-04T05:10:50;100722.31;;;25.26;51.89
63399;BME280;49533;-34.520;150.798;2023-04-04T05:13:18;100717.53;;;25.27;51.45
63399;BME280;49533;-34.520;150.798;2023-04-04T05:15:46;100719.53;;;25.26;51.54
63399;BME280;49533;-34.520;150.798;2023-04-04T05:18:13;100707.22;;;25.20;51.30
63399;BME280;49533;-34.520;150.798;2023-04-04T05:20:40;100696.13;;;25.16;51.70
63399;BME280;49533;-34.520;150.798;2023-04-04T05:23:07;100687.00;;;25.16;51.34
63399;BME280;49533;-34.520;150.798;2023-04-04T05:25:34;100665.94;;;25.04;51.76
63399;BME280;49533;-34.520;150.798;2023-04-04T05:28:01;100699.25;;;25.26;51.81
63399;BME280;49533;-34.520;150.798;2023-04-04T05:30:29;100294.03;;;22.58;50.68
63399;BME280;49533;-34.520;150.798;2023-04-04T05:32:56;100701.28;;;25.11;50.63
63399;BME280;49533;-34.520;150.798;2023-04-04T05:35:23;100681.06;;;24.89;50.69
63399;BME280;49533;-34.520;150.798;2023-04-04T05:37:51;100687.84;;;24.84;50.81
63399;BME280;49533;-34.520;150.798;2023-04-04T05:40:18;100689.03;;;24.90;50.68
63399;BME280;49533;-34.520;150.798;2023-04-04T05:42:54;100687.03;;;24.84;50.76
63399;BME280;49533;-34.520;150.798;2023-04-04T05:45:21;100664.47;;;24.67;51.36
63399;BME280;49533;-34.520;150.798;2023-04-04T05:47:49;100683.13;;;24.70;50.97
63399;BME280;49533;-34.520;150.798;2023-04-04T05:50:16;100677.56;;;24.63;51.36
63399;BME280;49533;-34.520;150.798;2023-04-04T05:52:45;100684.28;;;24.69;51.50
63399;BME280;49533;-34.520;150.798;2023-04-04T05:55:12;100687.47;;;24.71;50.77
63399;BME280;49533;-34.520;150.798;2023-04-04T05:57:50;100674.41;;;24.58;51.48
63399;BME280;49533;-34.520;150.798;2023-04-04T06:00:18;100665.28;;;24.57;51.44
63399;BME280;49533;-34.520;150.798;2023-04-04T06:02:45;100696.59;;;24.83;51.34
63399;BME280;49533;-34.520;150.798;2023-04-04T06:05:12;100694.56;;;24.87;51.41
63399;BME280;49533;-34.520;150.798;2023-04-04T06:07:40;100654.56;;;24.63;51.62
63399;BME280;49533;-34.520;150.798;2023-04-04T06:10:08;100699.72;;;24.92;51.76
63399;BME280;49533;-34.520;150.798;2023-04-04T06:12:35;100655.75;;;24.65;51.48
63399;BME280;49533;-34.520;150.798;2023-04-04T06:15:02;100704.47;;;24.95;51.47
63399;BME280;49533;-34.520;150.798;2023-04-04T06:17:29;100682.69;;;24.83;51.67
63399;BME280;49533;-34.520;150.798;2023-04-04T06:19:56;100689.81;;;24.91;51.85
63399;BME280;49533;-34.520;150.798;2023-04-04T06:22:23;100691.41;;;24.85;51.67
63399;BME280;49533;-34.520;150.798;2023-04-04T06:24:50;100683.06;;;24.85;51.26
63399;BME280;49533;-34.520;150.798;2023-04-04T06:27:17;100689.44;;;24.85;51.79
63399;BME280;49533;-34.520;150.798;2023-04-04T06:29:44;100677.53;;;24.74;51.76
63399;BME280;49533;-34.520;150.798;2023-04-04T06:32:12;100708.47;;;24.90;51.63
63399;BME280;49533;-34.520;150.798;2023-04-04T06:34:39;100683.47;;;24.80;51.74
63399;BME280;49533;-34.520;150.798;2023-04-04T06:37:06;100700.13;;;24.87;51.41
63399;BME280;49533;-34.520;150.798;2023-04-04T06:39:33;100712.03;;;24.87;51.66
63399;BME280;49533;-34.520;150.798;2023-04-04T06:42:01;100704.09;;;24.89;51.31
63399;BME280;49533;-34.520;150.798;2023-04-04T06:44:28;100692.22;;;24.78;51.14
63399;BME280;49533;-34.520;150.798;2023-04-04T06:46:55;100728.69;;;24.94;51.36
63399;BME280;49533;-34.520;150.798;2023-04-04T06:49:23;100723.13;;;24.94;51.51
63399;BME280;49533;-34.520;150.798;2023-04-04T06:51:50;100681.91;;;24.64;51.41
63399;BME280;49533;-34.520;150.798;2023-04-04T06:54:19;100709.69;;;24.79;51.60
63399;BME280;49533;-34.520;150.798;2023-04-04T06:56:46;100723.16;;;24.91;51.11
63399;BME280;49533;-34.520;150.798;2023-04-04T06:59:13;100714.84;;;24.77;51.26
63399;BME280;49533;-34.520;150.798;2023-04-04T07:01:40;100674.81;;;24.52;51.36
63399;BME280;49533;-34.520;150.798;2023-04-04T07:04:07;100722.38;;;24.87;51.20
63399;BME280;49533;-34.520;150.798;2023-04-04T07:06:34;100708.91;;;24.78;51.42
63399;BME280;49533;-34.520;150.798;2023-04-04T07:09:01;100701.78;;;24.63;51.06
63399;BME280;49533;-34.520;150.798;2023-04-04T07:11:30;100727.53;;;24.74;50.50
63399;BME280;49533;-34.520;150.798;2023-04-04T07:13:57;100672.38;;;24.44;50.53
63399;BME280;49533;-34.520;150.798;2023-04-04T07:16:24;100710.50;;;24.65;51.06
63399;BME280;49533;-34.520;150.798;2023-04-04T07:18:51;100738.25;;;24.79;51.21
63399;BME280;49533;-34.520;150.798;2023-04-04T07:21:18;100736.69;;;24.78;51.09
63399;BME280;49533;-34.520;150.798;2023-04-04T07:23:46;100720.81;;;24.64;50.21
63399;BME280;49533;-34.520;150.798;2023-04-04T07:26:13;100707.34;;;24.52;50.19
63399;BME280;49533;-34.520;150.798;2023-04-04T07:28:40;100711.31;;;24.58;50.36
63399;BME280;49533;-34.520;150.798;2023-04-04T07:31:07;100709.72;;;24.50;50.54
63399;BME280;49533;-34.520;150.798;2023-04-04T07:33:35;100735.09;;;24.70;50.20
63399;BME280;49533;-34.520;150.798;2023-04-04T07:36:02;100723.59;;;24.61;49.81
63399;BME280;49533;-34.520;150.798;2023-04-04T07:38:29;100731.53;;;24.66;49.86
63399;BME280;49533;-34.520;150.798;2023-04-04T07:40:59;100738.28;;;24.65;49.90
63399;BME280;49533;-34.520;150.798;2023-04-04T07:43:26;100730.34;;;24.63;50.30
63399;BME280;49533;-34.520;150.798;2023-04-04T07:45:54;100695.00;;;24.35;50.27
63399;BME280;49533;-34.520;150.798;2023-04-04T07:48:21;100735.13;;;24.52;50.46
63399;BME280;49533;-34.520;150.798;2023-04-04T07:50:48;100737.09;;;24.55;50.23
63399;BME280;49533;-34.520;150.798;2023-04-04T07:53:15;100737.88;;;24.56;50.50
63399;BME280;49533;-34.520;150.798;2023-04-04T07:55:42;100747.81;;;24.53;50.55
63399;BME280;49533;-34.520;150.798;2023-04-04T07:58:09;100701.75;;;24.23;49.78
63399;BME280;49533;-34.520;150.798;2023-04-04T08:00:36;100683.09;;;24.13;50.53
63399;BME280;49533;-34.520;150.798;2023-04-04T08:03:03;100728.38;;;24.53;51.34
63399;BME280;49533;-34.520;150.798;2023-04-04T08:05:30;100709.31;;;24.51;51.20
63399;BME280;49533;-34.520;150.798;2023-04-04T08:07:58;100722.41;;;24.62;51.38
63399;BME280;49533;-34.520;150.798;2023-04-04T08:10:25;100687.09;;;24.48;51.21
63399;BME280;49533;-34.520;150.798;2023-04-04T08:12:52;100739.84;;;24.80;50.95
63399;BME280;49533;-34.520;150.798;2023-04-04T08:15:20;100642.66;;;24.16;50.93
63399;BME280;49533;-34.520;150.798;2023-04-04T08:17:47;100729.91;;;24.43;51.25
63399;BME280;49533;-34.520;150.798;2023-04-04T08:20:15;100740.63;;;24.30;51.67
63399;BME280;49533;-34.520;150.798;2023-04-04T08:22:42;100736.25;;;24.12;51.88
63399;BME280;49533;-34.520;150.798;2023-04-04T08:25:09;100742.19;;;24.06;52.73
63399;BME280;49533;-34.520;150.798;2023-04-04T08:27:39;100747.34;;;24.01;52.88
63399;BME280;49533;-34.520;150.798;2023-04-04T08:30:09;100732.25;;;23.91;52.87
63399;BME280;49533;-34.520;150.798;2023-04-04T08:32:36;100715.97;;;23.75;52.71
63399;BME280;49533;-34.520;150.798;2023-04-04T08:35:04;100720.75;;;23.85;52.39
63399;BME280;49533;-34.520;150.798;2023-04-04T08:37:31;100668.75;;;23.61;52.83
63399;BME280;49533;-34.520;150.798;2023-04-04T08:40:01;100728.31;;;23.99;52.24
63399;BME280;49533;-34.520;150.798;2023-04-04T08:42:31;100764.06;;;24.37;51.96
63399;BME280;49533;-34.520;150.798;2023-04-04T08:45:02;100731.50;;;24.16;52.27
63399;BME280;49533;-34.520;150.798;2023-04-04T08:47:31;100776.38;;;24.50;51.98
63399;BME280;49533;-34.520;150.798;2023-04-04T08:50:04;100666.44;;;23.84;52.19
63399;BME280;49533;-34.520;150.798;2023-04-04T08:52:33;100737.06;;;24.30;51.89
63399;BME280;49533;-34.520;150.798;2023-04-04T08:55:03;100779.94;;;24.61;51.52
63399;BME280;49533;-34.520;150.798;2023-04-04T08:57:30;100704.94;;;24.15;51.81
63399;BME280;49533;-34.520;150.798;2023-04-04T08:59:59;100752.16;;;24.40;51.56
63399;BME280;49533;-34.520;150.798;2023-04-04T09:02:42;100777.97;;;24.65;51.36
63399;BME280;49533;-34.520;150.798;2023-04-04T09:05:12;100783.53;;;24.65;51.54
63399;BME280;49533;-34.520;150.798;2023-04-04T09:07:41;100511.72;;;22.88;51.42
63399;BME280;49533;-34.520;150.798;2023-04-04T09:10:10;100786.72;;;24.67;51.45
63399;BME280;49533;-34.520;150.798;2023-04-04T09:12:41;100788.28;;;24.68;51.09
63399;BME280;49533;-34.520;150.798;2023-04-04T09:15:09;100796.63;;;24.68;51.30
63399;BME280;49533;-34.520;150.798;2023-04-04T09:17:37;100788.28;;;24.68;51.16
63399;BME280;49533;-34.520;150.798;2023-04-04T09:20:34;100692.63;;;24.05;51.40
63399;BME280;49533;-34.520;150.798;2023-04-04T09:23:04;100772.00;;;24.49;51.52
63399;BME280;49533;-34.520;150.798;2023-04-04T09:25:34;100798.59;;;24.64;51.43
63399;BME280;49533;-34.520;150.798;2023-04-04T09:28:02;100804.16;;;24.64;51.38
63399;BME280;49533;-34.520;150.798;2023-04-04T09:30:33;100736.25;;;24.15;51.65
63399;BME280;49533;-34.520;150.798;2023-04-04T09:33:04;100758.88;;;24.28;51.51
63399;BME280;49533;-34.520;150.798;2023-04-04T09:35:37;100705.72;;;24.01;51.40
63399;BME280;49533;-34.520;150.798;2023-04-04T09:38:07;100728.69;;;24.05;51.27
63399;BME280;49533;-34.520;150.798;2023-04-04T09:40:35;100746.97;;;24.20;51.06
63399;BME280;49533;-34.520;150.798;2023-04-04T09:43:06;100797.81;;;24.53;51.00
63399;BME280;49533;-34.520;150.798;2023-04-04T09:45:36;100788.28;;;24.54;51.07
63399;BME280;49533;-34.520;150.798;2023-04-04T09:48:09;100801.75;;;24.59;51.36
63399;BME280;49533;-34.520;150.798;2023-04-04T09:50:44;100764.81;;;24.34;51.18
63399;BME280;49533;-34.520;150.798;2023-04-04T09:53:16;100812.50;;;24.61;51.15
63399;BME280;49533;-34.520;150.798;2023-04-04T09:55:50;100810.50;;;24.61;50.95
63399;BME280;49533;-34.520;150.798;2023-04-04T09:58:23;100762.81;;;24.23;50.99
63399;BME280;49533;-34.520;150.798;2023-04-04T10:00:54;100808.13;;;24.60;50.87
63399;BME280;49533;-34.520;150.798;2023-04-04T10:03:23;100755.69;;;24.19;50.96
63399;BME280;49533;-34.520;150.798;2023-04-04T10:05:59;100756.50;;;24.19;51.03
63399;BME280;49533;-34.520;150.798;2023-04-04T10:08:27;100746.56;;;24.11;50.59
63399;BME280;49533;-34.520;150.798;2023-04-04T10:10:57;100806.53;;;24.55;50.80
63399;BME280;49533;-34.520;150.798;2023-04-04T10:13:26;100740.59;;;24.13;50.51
63399;BME280;49533;-34.520;150.798;2023-04-04T10:15:55;100739.81;;;24.12;51.05
63399;BME280;49533;-34.520;150.798;2023-04-04T10:18:24;100764.44;;;24.32;51.07
63399;BME280;49533;-34.520;150.798;2023-04-04T10:20:54;100718.41;;;23.98;50.74
63399;BME280;49533;-34.520;150.798;2023-04-04T10:23:22;100800.19;;;24.51;50.64
63399;BME280;49533;-34.520;150.798;2023-04-04T10:25:54;100804.94;;;24.50;50.91
63399;BME280;49533;-34.520;150.798;2023-04-04T10:28:22;100808.94;;;24.49;50.52
63399;BME280;49533;-34.520;150.798;2023-04-04T10:30:58;100725.91;;;23.87;50.47
63399;BME280;49533;-34.520;150.798;2023-04-04T10:33:45;100729.06;;;23.89;50.52
63399;BME280;49533;-34.520;150.798;2023-04-04T10:36:22;100810.84;;;24.38;50.98
63399;BME280;49533;-34.520;150.798;2023-04-04T10:39:11;100739.00;;;23.94;50.56
63399;BME280;49533;-34.520;150.798;2023-04-04T10:41:39;100745.69;;;23.78;50.26
63399;BME280;49533;-34.520;150.798;2023-04-04T10:44:14;100812.03;;;24.37;50.79
63399;BME280;49533;-34.520;150.798;2023-04-04T10:46:46;100757.22;;;23.95;50.78
63399;BME280;49533;-34.520;150.798;2023-04-04T10:49:17;100783.00;;;24.02;50.65
63399;BME280;49533;-34.520;150.798;2023-04-04T10:51:45;100709.53;;;23.53;50.62
63399;BME280;49533;-34.520;150.798;2023-04-04T10:54:14;100808.84;;;24.14;50.41
63399;BME280;49533;-34.520;150.798;2023-04-04T10:56:41;100732.47;;;23.47;50.85
63399;BME280;49533;-34.520;150.798;2023-04-04T10:59:11;100829.03;;;24.11;50.71
63399;BME280;49533;-34.520;150.798;2023-04-04T11:01:48;100690.03;;;23.28;51.07
63399;BME280;49533;-34.520;150.798;2023-04-04T11:04:17;100727.78;;;23.58;50.83
63399;BME280;49533;-34.520;150.798;2023-04-04T11:07:06;100799.63;;;23.95;51.27
63399;BME280;49533;-34.520;150.798;2023-04-04T11:09:50;100810.41;;;24.11;50.92
63399;BME280;49533;-34.520;150.798;2023-04-04T11:12:28;100819.91;;;24.10;50.96
63399;BME280;49533;-34.520;150.798;2023-04-04T11:15:05;100788.13;;;23.90;51.00
63399;BME280;49533;-34.520;150.798;2023-04-04T11:17:53;100761.88;;;23.65;50.84
63399;BME280;49533;-34.520;150.798;2023-04-04T11:20:28;100811.19;;;24.01;50.94
63399;BME280;49533;-34.520;150.798;2023-04-04T11:23:06;100745.63;;;23.60;50.97
63399;BME280;49533;-34.520;150.798;2023-04-04T11:25:37;100803.22;;;23.99;51.00
63399;BME280;49533;-34.520;150.798;2023-04-04T11:28:06;100764.16;;;23.49;51.28
63399;BME280;49533;-34.520;150.798;2023-04-04T11:30:38;100829.78;;;23.97;51.40
63399;BME280;49533;-34.520;150.798;2023-04-04T11:33:15;100529.91;;;22.12;51.13
63399;BME280;49533;-34.520;150.798;2023-04-04T11:35:52;100640.28;;;22.80;51.06
63399;BME280;49533;-34.520;150.798;2023-04-04T11:38:35;100810.28;;;23.82;51.05
63399;BME280;49533;-34.520;150.798;2023-04-04T11:41:15;100798.84;;;23.91;51.09
63399;BME280;49533;-34.520;150.798;2023-04-04T11:43:47;100741.97;;;23.46;51.25
63399;BME280;49533;-34.520;150.798;2023-04-04T11:46:19;100436.91;;;21.35;51.33
63399;BME280;49533;-34.520;150.798;2023-04-04T11:48:52;100377.88;;;21.09;51.28
63399;BME280;49533;-34.520;150.798;2023-04-04T11:51:21;100496.41;;;21.69;51.33
63399;BME280;49533;-34.520;150.798;2023-04-04T11:53:53;100791.28;;;23.81;51.43
63399;BME280;49533;-34.520;150.798;2023-04-04T11:56:20;100784.50;;;23.75;51.40
63399;BME280;49533;-34.520;150.798;2023-04-04T11:58:51;100287.78;;;20.53;51.28
63399;BME280;49533;-34.520;150.798;2023-04-04T12:01:31;100381.56;;;20.83;51.30
63399;BME280;49533;-34.520;150.798;2023-04-04T12:04:04;100801.56;;;23.73;51.70
63399;BME280;49533;-34.520;150.798;2023-04-04T12:06:40;100325.06;;;20.73;51.28
63399;BME280;49533;-34.520;150.798;2023-04-04T12:09:10;100310.69;;;20.53;51.70
63399;BME280;49533;-34.520;150.798;2023-04-04T12:11:50;100745.56;;;23.50;51.70
63399;BME280;49533;-34.520;150.798;2023-04-04T12:14:22;100454.31;;;21.39;51.78
63399;BME280;49533;-34.520;150.798;2023-04-04T12:16:52;100772.97;;;23.65;51.63
63399;BME280;49533;-34.520;150.798;2023-04-04T12:19:34;100695.91;;;23.16;51.58
63399;BME280;49533;-34.520;150.798;2023-04-04T12:22:04;100706.22;;;23.19;51.15
63399;BME280;49533;-34.520;150.798;2023-04-04T12:24:45;100646.22;;;22.78;51.55
63399;BME280;49533;-34.520;150.798;2023-04-04T12:27:39;100498.72;;;21.60;51.44
63399;BME280;49533;-34.520;150.798;2023-04-04T12:30:07;100495.47;;;21.51;51.88
63399;BME280;49533;-34.520;150.798;2023-04-04T12:32:46;100414.59;;;21.13;51.70